FDX1267 LROP-UGSB
Flight info
| Callsign | FDX1267 |
|---|---|
| Flight time | N/A |
| Altitude | 39000 |
| Route | IDARU DCT DINRO N743 UDROS UM859 KARDE UN644 ROLIN |
| Aircraft | B752/M-SDE3FGHIM3RWXY/LB1 |
Departure
| Time | N/A |
|---|---|
| Airport | Bucharest Henri Coandă International Airport (LROP) |
Arrival
| Time | 2026-05-08 05:49 |
|---|---|
| Airport | Alexander Kartveli Batumi International Airport (UGSB) |
| Time | Latitude | Longitude | Altitude | Speed | Heading |
|---|---|---|---|---|---|
| 2026-05-08 05:42 | 41.79230 | 41.30669 | 3828 ft | 235 kts | 100° |
| 2026-05-08 05:42 | 41.78624 | 41.32571 | 3843 ft | 219 kts | 128° |
| 2026-05-08 05:43 | 41.77665 | 41.34106 | 3837 ft | 206 kts | 131° |
| 2026-05-08 05:43 | 41.76746 | 41.35523 | 3818 ft | 195 kts | 131° |
| 2026-05-08 05:43 | 41.75881 | 41.36826 | 3827 ft | 180 kts | 132° |
| 2026-05-08 05:43 | 41.75005 | 41.38125 | 3492 ft | 185 kts | 132° |
| 2026-05-08 05:44 | 41.74160 | 41.39475 | 3431 ft | 173 kts | 129° |
| 2026-05-08 05:44 | 41.73370 | 41.40776 | 3451 ft | 173 kts | 129° |
| 2026-05-08 05:44 | 41.72546 | 41.42095 | 3234 ft | 175 kts | 130° |
| 2026-05-08 05:44 | 41.71756 | 41.43347 | 2999 ft | 157 kts | 131° |
| 2026-05-08 05:45 | 41.71075 | 41.44417 | 2849 ft | 135 kts | 131° |
| 2026-05-08 05:45 | 41.70468 | 41.45362 | 2675 ft | 131 kts | 131° |
| 2026-05-08 05:45 | 41.69826 | 41.46359 | 2506 ft | 131 kts | 131° |
| 2026-05-08 05:45 | 41.69229 | 41.47283 | 2342 ft | 130 kts | 131° |
| 2026-05-08 05:46 | 41.68601 | 41.48254 | 2168 ft | 130 kts | 131° |
| 2026-05-08 05:46 | 41.67992 | 41.49194 | 1996 ft | 130 kts | 130° |
| 2026-05-08 05:46 | 41.67390 | 41.50125 | 1819 ft | 129 kts | 131° |
| 2026-05-08 05:46 | 41.66764 | 41.51092 | 1637 ft | 129 kts | 130° |
| 2026-05-08 05:47 | 41.66165 | 41.52016 | 1463 ft | 129 kts | 131° |
| 2026-05-08 05:47 | 41.65550 | 41.52965 | 1280 ft | 128 kts | 130° |
| 2026-05-08 05:47 | 41.64929 | 41.53923 | 1099 ft | 129 kts | 130° |
| 2026-05-08 05:47 | 41.64319 | 41.54865 | 918 ft | 129 kts | 131° |
| 2026-05-08 05:48 | 41.63706 | 41.55791 | 740 ft | 128 kts | 131° |
| 2026-05-08 05:48 | 41.63110 | 41.56715 | 538 ft | 128 kts | 130° |
| 2026-05-08 05:48 | 41.62488 | 41.57682 | 374 ft | 139 kts | 130° |
| 2026-05-08 05:48 | 41.61851 | 41.58672 | 208 ft | 138 kts | 131° |
| 2026-05-08 05:49 | 41.61237 | 41.59611 | 119 ft | 128 kts | 131° |
| 2026-05-08 05:49 | 41.60763 | 41.60335 | 116 ft | 73 kts | 130° |
| 2026-05-08 05:49 | 41.60517 | 41.60711 | 115 ft | 16 kts | 131° |
| 2026-05-08 05:49 | 41.60493 | 41.60837 | 115 ft | 14 kts | 72° |
| 2026-05-08 05:50 | 41.60509 | 41.60909 | 115 ft | 0 kts | 73° |
| 2026-05-08 05:50 | 41.60513 | 41.60925 | 115 ft | 5 kts | 75° |
| 2026-05-08 05:50 | 41.60528 | 41.61000 | 115 ft | 8 kts | 70° |
| 2026-05-08 05:50 | 41.60558 | 41.61061 | 115 ft | 7 kts | 49° |
| 2026-05-08 05:51 | 41.60577 | 41.61087 | 115 ft | 2 kts | 45° |
| 2026-05-08 05:51 | 41.60579 | 41.61089 | 115 ft | 0 kts | 45° |